sensor_id;sensor_type;location;lat;lon;timestamp;P1;durP1;ratioP1;P2;durP2;ratioP2
67037;SDS011;53940;53.204;6.590;2023-11-19T00:01:16;0.60;;;0.40;;
67037;SDS011;53940;53.204;6.590;2023-11-19T00:04:16;0.80;;;0.40;;
67037;SDS011;53940;53.204;6.590;2023-11-19T00:07:16;0.65;;;0.40;;
67037;SDS011;53940;53.204;6.590;2023-11-19T00:10:17;1.05;;;0.50;;
67037;SDS011;53940;53.204;6.590;2023-11-19T00:13:21;0.75;;;0.47;;
67037;SDS011;53940;53.204;6.590;2023-11-19T00:16:21;0.93;;;0.60;;
67037;SDS011;53940;53.204;6.590;2023-11-19T00:19:21;0.55;;;0.43;;
67037;SDS011;53940;53.204;6.590;2023-11-19T00:22:22;0.65;;;0.45;;
67037;SDS011;53940;53.204;6.590;2023-11-19T00:25:22;0.60;;;0.40;;
67037;SDS011;53940;53.204;6.590;2023-11-19T00:28:22;1.25;;;0.65;;
67037;SDS011;53940;53.204;6.590;2023-11-19T00:31:24;0.68;;;0.30;;
67037;SDS011;53940;53.204;6.590;2023-11-19T00:34:26;0.95;;;0.57;;
67037;SDS011;53940;53.204;6.590;2023-11-19T00:37:26;1.08;;;0.50;;
67037;SDS011;53940;53.204;6.590;2023-11-19T00:40:27;0.75;;;0.50;;
67037;SDS011;53940;53.204;6.590;2023-11-19T00:43:27;0.82;;;0.50;;
67037;SDS011;53940;53.204;6.590;2023-11-19T00:46:27;0.82;;;0.43;;
67037;SDS011;53940;53.204;6.590;2023-11-19T00:49:28;0.65;;;0.40;;
67037;SDS011;53940;53.204;6.590;2023-11-19T00:52:28;0.80;;;0.30;;
67037;SDS011;53940;53.204;6.590;2023-11-19T00:55:28;0.85;;;0.43;;
67037;SDS011;53940;53.204;6.590;2023-11-19T00:58:29;1.10;;;0.47;;
67037;SDS011;53940;53.204;6.590;2023-11-19T01:01:29;0.88;;;0.40;;
67037;SDS011;53940;53.204;6.590;2023-11-19T01:04:36;0.93;;;0.40;;
67037;SDS011;53940;53.204;6.590;2023-11-19T01:07:36;0.80;;;0.40;;
67037;SDS011;53940;53.204;6.590;2023-11-19T01:10:37;0.82;;;0.45;;
67037;SDS011;53940;53.204;6.590;2023-11-19T01:13:37;0.75;;;0.50;;
67037;SDS011;53940;53.204;6.590;2023-11-19T01:16:37;1.55;;;0.50;;
67037;SDS011;53940;53.204;6.590;2023-11-19T01:19:38;1.10;;;0.40;;
67037;SDS011;53940;53.204;6.590;2023-11-19T01:22:38;0.85;;;0.50;;
67037;SDS011;53940;53.204;6.590;2023-11-19T01:25:39;1.25;;;0.50;;
67037;SDS011;53940;53.204;6.590;2023-11-19T01:28:40;1.55;;;0.50;;
67037;SDS011;53940;53.204;6.590;2023-11-19T01:31:43;1.50;;;0.70;;
67037;SDS011;53940;53.204;6.590;2023-11-19T01:34:45;1.00;;;0.50;;
67037;SDS011;53940;53.204;6.590;2023-11-19T01:37:45;0.90;;;0.50;;
67037;SDS011;53940;53.204;6.590;2023-11-19T01:40:45;0.47;;;0.47;;
67037;SDS011;53940;53.204;6.590;2023-11-19T01:43:46;0.70;;;0.40;;
67037;SDS011;53940;53.204;6.590;2023-11-19T01:46:47;0.70;;;0.40;;
67037;SDS011;53940;53.204;6.590;2023-11-19T01:49:49;0.70;;;0.30;;
67037;SDS011;53940;53.204;6.590;2023-11-19T01:52:53;1.35;;;0.45;;
67037;SDS011;53940;53.204;6.590;2023-11-19T01:55:54;0.75;;;0.30;;
67037;SDS011;53940;53.204;6.590;2023-11-19T01:58:56;0.95;;;0.45;;
67037;SDS011;53940;53.204;6.590;2023-11-19T02:01:57;1.13;;;0.50;;
67037;SDS011;53940;53.204;6.590;2023-11-19T02:04:58;0.77;;;0.50;;
67037;SDS011;53940;53.204;6.590;2023-11-19T02:07:58;1.13;;;0.60;;
67037;SDS011;53940;53.204;6.590;2023-11-19T02:10:59;2.30;;;0.70;;
67037;SDS011;53940;53.204;6.590;2023-11-19T02:14:00;1.80;;;0.70;;
67037;SDS011;53940;53.204;6.590;2023-11-19T02:17:01;0.88;;;0.40;;
67037;SDS011;53940;53.204;6.590;2023-11-19T02:20:02;0.77;;;0.40;;
67037;SDS011;53940;53.204;6.590;2023-11-19T02:23:03;0.93;;;0.30;;
67037;SDS011;53940;53.204;6.590;2023-11-19T02:29:05;0.70;;;0.50;;
67037;SDS011;53940;53.204;6.590;2023-11-19T02:32:06;0.73;;;0.40;;
67037;SDS011;53940;53.204;6.590;2023-11-19T02:35:09;0.57;;;0.40;;
67037;SDS011;53940;53.204;6.590;2023-11-19T02:38:09;0.85;;;0.50;;
67037;SDS011;53940;53.204;6.590;2023-11-19T02:41:11;0.43;;;0.30;;
67037;SDS011;53940;53.204;6.590;2023-11-19T02:44:12;0.68;;;0.40;;
67037;SDS011;53940;53.204;6.590;2023-11-19T02:47:13;0.70;;;0.40;;
67037;SDS011;53940;53.204;6.590;2023-11-19T02:50:13;0.65;;;0.40;;
67037;SDS011;53940;53.204;6.590;2023-11-19T02:53:14;0.88;;;0.40;;
67037;SDS011;53940;53.204;6.590;2023-11-19T02:56:16;0.90;;;0.50;;
67037;SDS011;53940;53.204;6.590;2023-11-19T02:59:25;1.35;;;0.45;;
67037;SDS011;53940;53.204;6.590;2023-11-19T03:02:39;0.95;;;0.50;;
67037;SDS011;53940;53.204;6.590;2023-11-19T03:05:44;0.73;;;0.40;;
67037;SDS011;53940;53.204;6.590;2023-11-19T03:08:46;0.95;;;0.50;;
67037;SDS011;53940;53.204;6.590;2023-11-19T03:11:47;1.52;;;0.57;;
67037;SDS011;53940;53.204;6.590;2023-11-19T03:14:47;1.10;;;0.60;;
67037;SDS011;53940;53.204;6.590;2023-11-19T03:17:50;0.95;;;0.40;;
67037;SDS011;53940;53.204;6.590;2023-11-19T03:20:51;1.08;;;0.50;;
67037;SDS011;53940;53.204;6.590;2023-11-19T03:23:52;1.42;;;0.68;;
67037;SDS011;53940;53.204;6.590;2023-11-19T03:26:52;1.25;;;0.50;;
67037;SDS011;53940;53.204;6.590;2023-11-19T03:29:52;1.10;;;0.50;;
67037;SDS011;53940;53.204;6.590;2023-11-19T03:32:53;1.23;;;0.32;;
67037;SDS011;53940;53.204;6.590;2023-11-19T03:35:54;1.38;;;0.50;;
67037;SDS011;53940;53.204;6.590;2023-11-19T03:38:56;0.85;;;0.30;;
67037;SDS011;53940;53.204;6.590;2023-11-19T03:41:56;1.63;;;0.60;;
67037;SDS011;53940;53.204;6.590;2023-11-19T03:44:56;0.68;;;0.40;;
67037;SDS011;53940;53.204;6.590;2023-11-19T03:47:57;1.45;;;0.68;;
67037;SDS011;53940;53.204;6.590;2023-11-19T03:50:58;1.52;;;0.50;;
67037;SDS011;53940;53.204;6.590;2023-11-19T03:53:58;1.10;;;0.50;;
67037;SDS011;53940;53.204;6.590;2023-11-19T03:56:59;0.80;;;0.60;;
67037;SDS011;53940;53.204;6.590;2023-11-19T04:00:00;1.25;;;0.52;;
67037;SDS011;53940;53.204;6.590;2023-11-19T04:03:05;0.98;;;0.45;;
67037;SDS011;53940;53.204;6.590;2023-11-19T04:06:08;1.10;;;0.43;;
67037;SDS011;53940;53.204;6.590;2023-11-19T04:09:09;1.08;;;0.60;;
67037;SDS011;53940;53.204;6.590;2023-11-19T04:12:09;1.23;;;0.60;;
67037;SDS011;53940;53.204;6.590;2023-11-19T04:15:10;1.67;;;0.50;;
67037;SDS011;53940;53.204;6.590;2023-11-19T04:18:11;1.35;;;0.70;;
67037;SDS011;53940;53.204;6.590;2023-11-19T04:21:12;1.00;;;0.40;;
67037;SDS011;53940;53.204;6.590;2023-11-19T04:24:12;0.80;;;0.43;;
67037;SDS011;53940;53.204;6.590;2023-11-19T04:27:14;1.15;;;0.40;;
67037;SDS011;53940;53.204;6.590;2023-11-19T04:30:14;1.13;;;0.40;;
67037;SDS011;53940;53.204;6.590;2023-11-19T04:33:14;1.73;;;0.57;;
67037;SDS011;53940;53.204;6.590;2023-11-19T04:36:18;0.55;;;0.30;;
67037;SDS011;53940;53.204;6.590;2023-11-19T04:39:19;0.50;;;0.30;;
67037;SDS011;53940;53.204;6.590;2023-11-19T04:42:22;1.67;;;0.60;;
67037;SDS011;53940;53.204;6.590;2023-11-19T04:45:22;0.57;;;0.38;;
67037;SDS011;53940;53.204;6.590;2023-11-19T04:48:23;1.63;;;0.60;;
67037;SDS011;53940;53.204;6.590;2023-11-19T04:51:23;1.00;;;0.50;;
67037;SDS011;53940;53.204;6.590;2023-11-19T04:54:24;1.13;;;0.50;;
67037;SDS011;53940;53.204;6.590;2023-11-19T04:57:24;1.10;;;0.50;;
67037;SDS011;53940;53.204;6.590;2023-11-19T05:00:24;1.10;;;0.50;;
67037;SDS011;53940;53.204;6.590;2023-11-19T05:03:25;1.23;;;0.60;;
67037;SDS011;53940;53.204;6.590;2023-11-19T05:06:30;1.33;;;0.50;;
67037;SDS011;53940;53.204;6.590;2023-11-19T05:09:31;0.90;;;0.50;;
67037;SDS011;53940;53.204;6.590;2023-11-19T05:12:31;1.75;;;0.60;;
67037;SDS011;53940;53.204;6.590;2023-11-19T05:15:31;0.90;;;0.50;;
67037;SDS011;53940;53.204;6.590;2023-11-19T05:18:33;1.58;;;0.60;;
67037;SDS011;53940;53.204;6.590;2023-11-19T05:21:33;1.85;;;0.70;;
67037;SDS011;53940;53.204;6.590;2023-11-19T05:24:34;0.95;;;0.40;;
67037;SDS011;53940;53.204;6.590;2023-11-19T05:27:36;1.27;;;0.40;;
67037;SDS011;53940;53.204;6.590;2023-11-19T05:30:36;1.45;;;0.60;;
67037;SDS011;53940;53.204;6.590;2023-11-19T05:33:37;1.38;;;0.50;;
67037;SDS011;53940;53.204;6.590;2023-11-19T05:36:37;1.52;;;0.45;;
67037;SDS011;53940;53.204;6.590;2023-11-19T05:39:39;1.02;;;0.47;;
67037;SDS011;53940;53.204;6.590;2023-11-19T05:42:40;1.20;;;0.50;;
67037;SDS011;53940;53.204;6.590;2023-11-19T05:45:41;1.08;;;0.40;;
67037;SDS011;53940;53.204;6.590;2023-11-19T05:48:41;1.45;;;0.60;;
67037;SDS011;53940;53.204;6.590;2023-11-19T05:51:41;1.10;;;0.43;;
67037;SDS011;53940;53.204;6.590;2023-11-19T05:54:42;1.25;;;0.60;;
67037;SDS011;53940;53.204;6.590;2023-11-19T05:57:42;1.42;;;0.50;;
67037;SDS011;53940;53.204;6.590;2023-11-19T06:00:43;1.10;;;0.55;;
67037;SDS011;53940;53.204;6.590;2023-11-19T06:03:43;1.13;;;0.50;;
67037;SDS011;53940;53.204;6.590;2023-11-19T06:06:44;1.25;;;0.40;;
67037;SDS011;53940;53.204;6.590;2023-11-19T06:09:44;0.98;;;0.43;;
67037;SDS011;53940;53.204;6.590;2023-11-19T06:12:44;1.40;;;0.47;;
67037;SDS011;53940;53.204;6.590;2023-11-19T06:15:46;1.40;;;0.63;;
67037;SDS011;53940;53.204;6.590;2023-11-19T06:18:46;1.40;;;0.40;;
67037;SDS011;53940;53.204;6.590;2023-11-19T06:21:47;1.48;;;0.52;;
67037;SDS011;53940;53.204;6.590;2023-11-19T06:24:47;1.25;;;0.50;;
67037;SDS011;53940;53.204;6.590;2023-11-19T06:27:47;1.38;;;0.47;;
67037;SDS011;53940;53.204;6.590;2023-11-19T06:30:48;1.13;;;0.55;;
67037;SDS011;53940;53.204;6.590;2023-11-19T06:33:48;3.20;;;0.90;;
67037;SDS011;53940;53.204;6.590;2023-11-19T06:36:48;3.72;;;1.45;;
67037;SDS011;53940;53.204;6.590;2023-11-19T06:39:49;3.83;;;1.00;;
67037;SDS011;53940;53.204;6.590;2023-11-19T06:42:49;3.28;;;1.10;;
67037;SDS011;53940;53.204;6.590;2023-11-19T06:45:53;3.10;;;1.13;;
67037;SDS011;53940;53.204;6.590;2023-11-19T06:48:54;4.05;;;1.20;;
67037;SDS011;53940;53.204;6.590;2023-11-19T06:51:54;2.92;;;1.10;;
67037;SDS011;53940;53.204;6.590;2023-11-19T06:54:55;2.92;;;1.13;;
67037;SDS011;53940;53.204;6.590;2023-11-19T06:57:56;4.38;;;1.10;;
67037;SDS011;53940;53.204;6.590;2023-11-19T07:00:57;4.70;;;1.38;;
67037;SDS011;53940;53.204;6.590;2023-11-19T07:03:57;2.67;;;1.15;;
67037;SDS011;53940;53.204;6.590;2023-11-19T07:06:58;3.40;;;1.00;;
67037;SDS011;53940;53.204;6.590;2023-11-19T07:09:58;3.47;;;1.00;;
67037;SDS011;53940;53.204;6.590;2023-11-19T07:12:59;2.60;;;1.10;;
67037;SDS011;53940;53.204;6.590;2023-11-19T07:15:59;3.20;;;1.08;;
67037;SDS011;53940;53.204;6.590;2023-11-19T07:19:03;3.83;;;1.20;;
67037;SDS011;53940;53.204;6.590;2023-11-19T07:22:03;2.70;;;1.00;;
67037;SDS011;53940;53.204;6.590;2023-11-19T07:25:04;2.50;;;0.90;;
67037;SDS011;53940;53.204;6.590;2023-11-19T07:28:05;2.28;;;1.00;;
67037;SDS011;53940;53.204;6.590;2023-11-19T07:31:05;2.55;;;0.98;;
67037;SDS011;53940;53.204;6.590;2023-11-19T07:34:08;2.47;;;1.10;;
67037;SDS011;53940;53.204;6.590;2023-11-19T07:37:09;2.80;;;1.00;;
67037;SDS011;53940;53.204;6.590;2023-11-19T07:40:09;3.15;;;0.98;;
67037;SDS011;53940;53.204;6.590;2023-11-19T07:43:12;2.65;;;0.90;;
67037;SDS011;53940;53.204;6.590;2023-11-19T07:46:13;2.65;;;1.10;;
67037;SDS011;53940;53.204;6.590;2023-11-19T07:49:13;3.67;;;1.13;;
67037;SDS011;53940;53.204;6.590;2023-11-19T07:52:14;2.72;;;1.15;;
67037;SDS011;53940;53.204;6.590;2023-11-19T07:55:14;2.72;;;1.00;;
67037;SDS011;53940;53.204;6.590;2023-11-19T07:58:14;5.30;;;1.50;;
67037;SDS011;53940;53.204;6.590;2023-11-19T08:01:15;4.78;;;1.25;;
67037;SDS011;53940;53.204;6.590;2023-11-19T08:04:16;2.92;;;1.08;;
67037;SDS011;53940;53.204;6.590;2023-11-19T08:07:16;2.90;;;1.10;;
67037;SDS011;53940;53.204;6.590;2023-11-19T08:10:16;2.50;;;1.10;;
67037;SDS011;53940;53.204;6.590;2023-11-19T08:13:17;2.50;;;1.10;;
67037;SDS011;53940;53.204;6.590;2023-11-19T08:16:18;3.40;;;1.05;;
67037;SDS011;53940;53.204;6.590;2023-11-19T08:19:18;3.75;;;1.23;;
67037;SDS011;53940;53.204;6.590;2023-11-19T08:22:19;2.53;;;1.02;;
67037;SDS011;53940;53.204;6.590;2023-11-19T08:25:19;3.70;;;1.17;;
67037;SDS011;53940;53.204;6.590;2023-11-19T08:28:19;3.13;;;0.90;;
67037;SDS011;53940;53.204;6.590;2023-11-19T08:31:20;2.63;;;1.02;;
67037;SDS011;53940;53.204;6.590;2023-11-19T08:34:20;2.17;;;1.02;;
67037;SDS011;53940;53.204;6.590;2023-11-19T08:37:20;3.47;;;0.98;;
67037;SDS011;53940;53.204;6.590;2023-11-19T08:40:22;2.60;;;0.93;;
67037;SDS011;53940;53.204;6.590;2023-11-19T08:43:22;2.53;;;0.90;;
67037;SDS011;53940;53.204;6.590;2023-11-19T08:46:24;2.47;;;1.00;;
67037;SDS011;53940;53.204;6.590;2023-11-19T08:49:25;2.65;;;1.10;;
67037;SDS011;53940;53.204;6.590;2023-11-19T08:52:25;2.50;;;1.10;;
67037;SDS011;53940;53.204;6.590;2023-11-19T08:55:26;2.33;;;0.90;;
67037;SDS011;53940;53.204;6.590;2023-11-19T08:58:26;3.65;;;0.85;;
67037;SDS011;53940;53.204;6.590;2023-11-19T09:01:26;2.72;;;1.00;;
67037;SDS011;53940;53.204;6.590;2023-11-19T09:04:27;3.45;;;1.08;;
67037;SDS011;53940;53.204;6.590;2023-11-19T09:07:27;2.65;;;0.90;;
67037;SDS011;53940;53.204;6.590;2023-11-19T09:10:28;2.42;;;0.98;;
67037;SDS011;53940;53.204;6.590;2023-11-19T09:13:29;2.53;;;1.00;;
67037;SDS011;53940;53.204;6.590;2023-11-19T09:16:29;2.75;;;1.10;;
67037;SDS011;53940;53.204;6.590;2023-11-19T09:19:32;2.70;;;1.02;;
67037;SDS011;53940;53.204;6.590;2023-11-19T09:22:32;2.13;;;0.90;;
67037;SDS011;53940;53.204;6.590;2023-11-19T09:25:33;2.80;;;1.15;;
67037;SDS011;53940;53.204;6.590;2023-11-19T09:28:33;3.30;;;1.20;;
67037;SDS011;53940;53.204;6.590;2023-11-19T09:31:33;3.03;;;1.20;;
67037;SDS011;53940;53.204;6.590;2023-11-19T09:34:34;2.45;;;0.98;;
67037;SDS011;53940;53.204;6.590;2023-11-19T09:37:34;2.28;;;1.08;;
67037;SDS011;53940;53.204;6.590;2023-11-19T09:40:35;2.78;;;1.00;;
67037;SDS011;53940;53.204;6.590;2023-11-19T09:43:35;2.63;;;1.17;;
67037;SDS011;53940;53.204;6.590;2023-11-19T09:46:39;1.92;;;0.88;;
67037;SDS011;53940;53.204;6.590;2023-11-19T09:49:41;2.67;;;1.00;;
67037;SDS011;53940;53.204;6.590;2023-11-19T09:52:42;2.65;;;1.00;;
67037;SDS011;53940;53.204;6.590;2023-11-19T09:55:43;2.22;;;0.93;;
67037;SDS011;53940;53.204;6.590;2023-11-19T09:58:44;2.78;;;1.00;;
67037;SDS011;53940;53.204;6.590;2023-11-19T10:01:45;2.97;;;1.00;;
67037;SDS011;53940;53.204;6.590;2023-11-19T10:04:45;2.30;;;0.90;;
67037;SDS011;53940;53.204;6.590;2023-11-19T10:07:47;3.75;;;1.00;;
67037;SDS011;53940;53.204;6.590;2023-11-19T10:10:47;3.60;;;1.00;;
67037;SDS011;53940;53.204;6.590;2023-11-19T10:13:48;1.90;;;0.80;;
67037;SDS011;53940;53.204;6.590;2023-11-19T10:16:49;1.90;;;0.75;;
67037;SDS011;53940;53.204;6.590;2023-11-19T10:19:49;2.30;;;0.85;;
67037;SDS011;53940;53.204;6.590;2023-11-19T10:22:55;2.33;;;0.95;;
67037;SDS011;53940;53.204;6.590;2023-11-19T10:26:02;3.05;;;1.02;;
67037;SDS011;53940;53.204;6.590;2023-11-19T10:29:05;2.22;;;0.90;;
67037;SDS011;53940;53.204;6.590;2023-11-19T10:32:05;2.85;;;0.82;;
67037;SDS011;53940;53.204;6.590;2023-11-19T10:35:06;2.53;;;0.98;;
67037;SDS011;53940;53.204;6.590;2023-11-19T10:38:13;1.80;;;0.77;;
67037;SDS011;53940;53.204;6.590;2023-11-19T10:41:30;3.22;;;1.10;;
67037;SDS011;53940;53.204;6.590;2023-11-19T10:44:32;2.33;;;0.80;;
67037;SDS011;53940;53.204;6.590;2023-11-19T10:47:36;3.35;;;0.90;;
67037;SDS011;53940;53.204;6.590;2023-11-19T10:50:40;1.60;;;0.70;;
67037;SDS011;53940;53.204;6.590;2023-11-19T10:53:41;2.38;;;0.93;;
67037;SDS011;53940;53.204;6.590;2023-11-19T10:56:45;2.97;;;0.93;;
67037;SDS011;53940;53.204;6.590;2023-11-19T10:59:55;2.00;;;0.80;;
67037;SDS011;53940;53.204;6.590;2023-11-19T11:06:05;2.30;;;0.90;;
67037;SDS011;53940;53.204;6.590;2023-11-19T11:09:07;2.75;;;0.80;;
67037;SDS011;53940;53.204;6.590;2023-11-19T11:12:12;1.92;;;0.98;;
67037;SDS011;53940;53.204;6.590;2023-11-19T11:15:13;2.75;;;0.80;;
67037;SDS011;53940;53.204;6.590;2023-11-19T11:18:15;1.30;;;0.75;;
67037;SDS011;53940;53.204;6.590;2023-11-19T11:21:20;2.92;;;1.08;;
67037;SDS011;53940;53.204;6.590;2023-11-19T11:24:36;1.25;;;0.60;;
67037;SDS011;53940;53.204;6.590;2023-11-19T11:38:28;2.42;;;0.88;;
67037;SDS011;53940;53.204;6.590;2023-11-19T11:41:33;2.40;;;0.90;;
67037;SDS011;53940;53.204;6.590;2023-11-19T11:44:57;2.13;;;0.77;;
67037;SDS011;53940;53.204;6.590;2023-11-19T11:50:58;2.37;;;0.90;;
67037;SDS011;53940;53.204;6.590;2023-11-19T11:53:59;2.90;;;0.90;;
67037;SDS011;53940;53.204;6.590;2023-11-19T11:57:10;1.85;;;0.80;;
67037;SDS011;53940;53.204;6.590;2023-11-19T12:00:13;2.47;;;1.00;;
67037;SDS011;53940;53.204;6.590;2023-11-19T12:03:22;1.80;;;0.77;;
67037;SDS011;53940;53.204;6.590;2023-11-19T12:06:23;2.10;;;0.80;;
67037;SDS011;53940;53.204;6.590;2023-11-19T12:09:24;2.92;;;0.90;;
67037;SDS011;53940;53.204;6.590;2023-11-19T12:12:26;1.98;;;0.90;;
67037;SDS011;53940;53.204;6.590;2023-11-19T12:15:28;2.35;;;0.90;;
67037;SDS011;53940;53.204;6.590;2023-11-19T12:18:32;3.08;;;1.17;;
67037;SDS011;53940;53.204;6.590;2023-11-19T12:21:32;2.10;;;0.77;;
67037;SDS011;53940;53.204;6.590;2023-11-19T12:24:33;3.03;;;1.02;;
67037;SDS011;53940;53.204;6.590;2023-11-19T12:27:34;6.75;;;1.25;;
67037;SDS011;53940;53.204;6.590;2023-11-19T12:30:35;5.13;;;1.60;;
67037;SDS011;53940;53.204;6.590;2023-11-19T12:33:35;3.05;;;1.20;;
67037;SDS011;53940;53.204;6.590;2023-11-19T12:36:37;3.58;;;1.40;;
67037;SDS011;53940;53.204;6.590;2023-11-19T12:39:38;2.67;;;1.20;;
67037;SDS011;53940;53.204;6.590;2023-11-19T12:42:40;2.85;;;1.02;;
67037;SDS011;53940;53.204;6.590;2023-11-19T12:45:41;2.53;;;1.30;;
67037;SDS011;53940;53.204;6.590;2023-11-19T12:48:41;2.25;;;1.00;;
67037;SDS011;53940;53.204;6.590;2023-11-19T12:51:42;2.60;;;1.10;;
67037;SDS011;53940;53.204;6.590;2023-11-19T12:54:42;1.95;;;0.80;;
67037;SDS011;53940;53.204;6.590;2023-11-19T12:57:43;3.22;;;1.00;;
67037;SDS011;53940;53.204;6.590;2023-11-19T13:00:43;2.40;;;1.00;;
67037;SDS011;53940;53.204;6.590;2023-11-19T13:03:43;2.78;;;1.00;;
67037;SDS011;53940;53.204;6.590;2023-11-19T13:06:47;1.83;;;0.90;;
67037;SDS011;53940;53.204;6.590;2023-11-19T13:09:47;3.15;;;1.10;;
67037;SDS011;53940;53.204;6.590;2023-11-19T13:13:07;3.17;;;1.17;;
67037;SDS011;53940;53.204;6.590;2023-11-19T13:16:08;2.10;;;1.00;;
67037;SDS011;53940;53.204;6.590;2023-11-19T13:19:09;2.25;;;0.93;;
67037;SDS011;53940;53.204;6.590;2023-11-19T13:22:10;2.60;;;1.00;;
67037;SDS011;53940;53.204;6.590;2023-11-19T13:25:10;2.55;;;0.82;;
67037;SDS011;53940;53.204;6.590;2023-11-19T13:28:10;2.33;;;0.95;;
67037;SDS011;53940;53.204;6.590;2023-11-19T13:31:11;2.42;;;0.90;;
67037;SDS011;53940;53.204;6.590;2023-11-19T13:34:11;2.15;;;0.90;;
67037;SDS011;53940;53.204;6.590;2023-11-19T13:37:11;2.60;;;0.80;;
67037;SDS011;53940;53.204;6.590;2023-11-19T13:40:11;2.85;;;0.70;;
67037;SDS011;53940;53.204;6.590;2023-11-19T13:43:15;2.40;;;0.93;;
67037;SDS011;53940;53.204;6.590;2023-11-19T13:46:15;1.98;;;0.90;;
67037;SDS011;53940;53.204;6.590;2023-11-19T13:49:16;3.03;;;0.90;;
67037;SDS011;53940;53.204;6.590;2023-11-19T13:52:16;2.25;;;0.90;;
67037;SDS011;53940;53.204;6.590;2023-11-19T13:55:17;1.92;;;0.88;;
67037;SDS011;53940;53.204;6.590;2023-11-19T13:58:18;1.88;;;0.80;;
67037;SDS011;53940;53.204;6.590;2023-11-19T14:01:18;2.60;;;0.93;;
67037;SDS011;53940;53.204;6.590;2023-11-19T14:04:18;2.05;;;0.98;;
67037;SDS011;53940;53.204;6.590;2023-11-19T14:07:19;2.33;;;0.82;;
67037;SDS011;53940;53.204;6.590;2023-11-19T14:10:19;2.15;;;0.88;;
67037;SDS011;53940;53.204;6.590;2023-11-19T14:13:20;3.03;;;0.77;;
67037;SDS011;53940;53.204;6.590;2023-11-19T14:16:20;1.67;;;0.75;;
67037;SDS011;53940;53.204;6.590;2023-11-19T14:19:21;1.58;;;0.77;;
67037;SDS011;53940;53.204;6.590;2023-11-19T14:22:21;1.95;;;0.77;;
67037;SDS011;53940;53.204;6.590;2023-11-19T14:25:21;2.33;;;0.85;;
67037;SDS011;53940;53.204;6.590;2023-11-19T14:28:23;2.03;;;0.82;;
67037;SDS011;53940;53.204;6.590;2023-11-19T14:31:27;1.33;;;0.70;;
67037;SDS011;53940;53.204;6.590;2023-11-19T14:34:29;2.22;;;0.82;;
67037;SDS011;53940;53.204;6.590;2023-11-19T14:37:30;1.80;;;0.80;;
67037;SDS011;53940;53.204;6.590;2023-11-19T14:40:33;4.50;;;0.80;;
67037;SDS011;53940;53.204;6.590;2023-11-19T14:43:33;2.58;;;0.77;;
67037;SDS011;53940;53.204;6.590;2023-11-19T14:46:34;2.78;;;0.90;;
67037;SDS011;53940;53.204;6.590;2023-11-19T14:49:34;2.45;;;0.90;;
67037;SDS011;53940;53.204;6.590;2023-11-19T14:52:35;2.00;;;0.75;;
67037;SDS011;53940;53.204;6.590;2023-11-19T14:55:37;1.92;;;0.88;;
67037;SDS011;53940;53.204;6.590;2023-11-19T14:58:37;2.30;;;0.82;;
67037;SDS011;53940;53.204;6.590;2023-11-19T15:01:37;1.45;;;0.60;;
67037;SDS011;53940;53.204;6.590;2023-11-19T15:04:38;2.72;;;0.80;;
67037;SDS011;53940;53.204;6.590;2023-11-19T15:07:38;2.30;;;0.95;;
67037;SDS011;53940;53.204;6.590;2023-11-19T15:10:41;2.00;;;0.93;;
67037;SDS011;53940;53.204;6.590;2023-11-19T15:13:42;2.08;;;0.80;;
67037;SDS011;53940;53.204;6.590;2023-11-19T15:16:42;2.17;;;0.70;;
67037;SDS011;53940;53.204;6.590;2023-11-19T15:19:43;3.10;;;0.95;;
67037;SDS011;53940;53.204;6.590;2023-11-19T15:22:45;1.85;;;0.90;;
67037;SDS011;53940;53.204;6.590;2023-11-19T15:25:46;1.60;;;0.70;;
67037;SDS011;53940;53.204;6.590;2023-11-19T15:28:46;3.10;;;0.90;;
67037;SDS011;53940;53.204;6.590;2023-11-19T15:31:47;1.65;;;0.90;;
67037;SDS011;53940;53.204;6.590;2023-11-19T15:34:47;1.58;;;0.93;;
67037;SDS011;53940;53.204;6.590;2023-11-19T15:37:48;2.72;;;0.90;;
67037;SDS011;53940;53.204;6.590;2023-11-19T15:40:48;2.25;;;0.80;;
67037;SDS011;53940;53.204;6.590;2023-11-19T15:43:49;2.42;;;0.90;;
67037;SDS011;53940;53.204;6.590;2023-11-19T15:46:49;2.97;;;0.80;;
67037;SDS011;53940;53.204;6.590;2023-11-19T15:49:50;2.10;;;0.80;;
67037;SDS011;53940;53.204;6.590;2023-11-19T15:52:50;2.35;;;0.80;;
67037;SDS011;53940;53.204;6.590;2023-11-19T15:55:50;2.17;;;0.85;;
67037;SDS011;53940;53.204;6.590;2023-11-19T15:58:52;4.40;;;1.10;;
67037;SDS011;53940;53.204;6.590;2023-11-19T16:01:53;2.60;;;0.90;;
67037;SDS011;53940;53.204;6.590;2023-11-19T16:04:54;1.70;;;0.77;;
67037;SDS011;53940;53.204;6.590;2023-11-19T16:07:54;2.53;;;0.90;;
67037;SDS011;53940;53.204;6.590;2023-11-19T16:10:54;2.72;;;0.85;;
67037;SDS011;53940;53.204;6.590;2023-11-19T16:13:55;1.70;;;0.80;;
67037;SDS011;53940;53.204;6.590;2023-11-19T16:16:55;1.75;;;0.85;;
67037;SDS011;53940;53.204;6.590;2023-11-19T16:19:55;2.13;;;0.80;;
67037;SDS011;53940;53.204;6.590;2023-11-19T16:22:56;1.92;;;0.80;;
67037;SDS011;53940;53.204;6.590;2023-11-19T16:25:59;1.80;;;0.77;;
67037;SDS011;53940;53.204;6.590;2023-11-19T16:28:59;2.65;;;0.93;;
67037;SDS011;53940;53.204;6.590;2023-11-19T16:32:00;1.73;;;0.77;;
67037;SDS011;53940;53.204;6.590;2023-11-19T16:35:00;1.98;;;0.80;;
67037;SDS011;53940;53.204;6.590;2023-11-19T16:38:00;1.85;;;0.85;;
67037;SDS011;53940;53.204;6.590;2023-11-19T16:41:06;2.65;;;0.90;;
67037;SDS011;53940;53.204;6.590;2023-11-19T16:44:06;3.05;;;0.90;;
67037;SDS011;53940;53.204;6.590;2023-11-19T16:47:07;2.70;;;0.68;;
67037;SDS011;53940;53.204;6.590;2023-11-19T16:50:07;1.80;;;0.80;;
67037;SDS011;53940;53.204;6.590;2023-11-19T16:53:08;1.73;;;0.77;;
67037;SDS011;53940;53.204;6.590;2023-11-19T16:56:08;1.83;;;0.70;;
67037;SDS011;53940;53.204;6.590;2023-11-19T16:59:09;1.88;;;0.90;;
67037;SDS011;53940;53.204;6.590;2023-11-19T17:02:10;2.45;;;1.00;;
67037;SDS011;53940;53.204;6.590;2023-11-19T17:05:13;1.75;;;0.65;;
67037;SDS011;53940;53.204;6.590;2023-11-19T17:08:16;2.30;;;0.90;;
67037;SDS011;53940;53.204;6.590;2023-11-19T17:11:16;1.70;;;0.80;;
67037;SDS011;53940;53.204;6.590;2023-11-19T17:14:17;1.08;;;0.70;;
67037;SDS011;53940;53.204;6.590;2023-11-19T17:17:17;2.35;;;0.90;;
67037;SDS011;53940;53.204;6.590;2023-11-19T17:20:18;2.38;;;0.98;;
67037;SDS011;53940;53.204;6.590;2023-11-19T17:23:18;2.00;;;0.70;;
67037;SDS011;53940;53.204;6.590;2023-11-19T17:26:19;1.95;;;0.80;;
67037;SDS011;53940;53.204;6.590;2023-11-19T17:29:19;2.15;;;0.90;;
67037;SDS011;53940;53.204;6.590;2023-11-19T17:32:19;1.60;;;0.70;;
67037;SDS011;53940;53.204;6.590;2023-11-19T17:35:20;2.38;;;0.90;;
67037;SDS011;53940;53.204;6.590;2023-11-19T17:38:22;2.55;;;1.05;;
67037;SDS011;53940;53.204;6.590;2023-11-19T17:41:25;2.92;;;1.00;;
67037;SDS011;53940;53.204;6.590;2023-11-19T17:44:27;2.30;;;0.98;;
67037;SDS011;53940;53.204;6.590;2023-11-19T17:47:27;2.70;;;1.00;;
67037;SDS011;53940;53.204;6.590;2023-11-19T17:50:28;2.08;;;0.98;;
67037;SDS011;53940;53.204;6.590;2023-11-19T17:53:28;2.22;;;0.88;;
67037;SDS011;53940;53.204;6.590;2023-11-19T17:56:29;2.22;;;0.75;;
67037;SDS011;53940;53.204;6.590;2023-11-19T17:59:29;2.28;;;0.98;;
67037;SDS011;53940;53.204;6.590;2023-11-19T18:02:29;1.98;;;0.88;;
67037;SDS011;53940;53.204;6.590;2023-11-19T18:05:30;2.47;;;1.05;;
67037;SDS011;53940;53.204;6.590;2023-11-19T18:08:30;2.60;;;1.10;;
67037;SDS011;53940;53.204;6.590;2023-11-19T18:11:35;2.35;;;0.95;;
67037;SDS011;53940;53.204;6.590;2023-11-19T18:14:37;2.08;;;1.00;;
67037;SDS011;53940;53.204;6.590;2023-11-19T18:17:38;3.45;;;0.90;;
67037;SDS011;53940;53.204;6.590;2023-11-19T18:20:41;3.08;;;1.00;;
67037;SDS011;53940;53.204;6.590;2023-11-19T18:23:41;2.17;;;0.93;;
67037;SDS011;53940;53.204;6.590;2023-11-19T18:26:42;3.22;;;0.93;;
67037;SDS011;53940;53.204;6.590;2023-11-19T18:29:42;3.00;;;1.05;;
67037;SDS011;53940;53.204;6.590;2023-11-19T18:32:44;2.90;;;0.80;;